Smiley, Texas
Current Conditions -  °F | °C
As of 9:32 PM on Sunday 21 Dec 2014 (Local Time) from KBAZ Reporting Station
Haze Haze  
Wind Chill: 55°   Ceiling: 500
Heat Index: 55°   Visibility: 5mi
Dew Point: 53°   Wind: 5mph
Humidity: 93%   Direction: 180°S
Pressure: 29.86"   Gusts: NA
Location:  29.27°N, 97.64°W
Report Text: KBAZ 220332Z AUTO 18004KT 5SM BR BKN005 OVC021 13/12 A2986 RMK AO2 T01280117
Loading
Personal Weather Stations






























Interactive Weather Map New forecast layout! Learn more

10-Day Weather Forecast

Advertisements
Track Severe Weather on mobile